sensor_id;sensor_type;location;lat;lon;timestamp;temperature;humidity
9219;DHT22;4644;48.858;9.184;2023-01-26T00:00:59;1.20;99.90
9219;DHT22;4644;48.858;9.184;2023-01-26T00:03:27;1.10;99.90
9219;DHT22;4644;48.858;9.184;2023-01-26T00:06:08;1.10;99.90
9219;DHT22;4644;48.858;9.184;2023-01-26T00:08:38;1.10;99.90
9219;DHT22;4644;48.858;9.184;2023-01-26T00:11:07;1.10;99.90
9219;DHT22;4644;48.858;9.184;2023-01-26T00:13:34;1.00;99.90
9219;DHT22;4644;48.858;9.184;2023-01-26T00:16:02;1.00;99.90
9219;DHT22;4644;48.858;9.184;2023-01-26T00:18:30;1.00;99.90
9219;DHT22;4644;48.858;9.184;2023-01-26T00:20:57;1.00;99.90
9219;DHT22;4644;48.858;9.184;2023-01-26T00:23:26;1.00;99.90
9219;DHT22;4644;48.858;9.184;2023-01-26T00:25:55;1.00;99.90
9219;DHT22;4644;48.858;9.184;2023-01-26T00:28:22;1.10;99.90
9219;DHT22;4644;48.858;9.184;2023-01-26T00:30:49;1.10;99.90
9219;DHT22;4644;48.858;9.184;2023-01-26T00:33:16;1.10;99.90
9219;DHT22;4644;48.858;9.184;2023-01-26T00:35:43;1.10;99.90
9219;DHT22;4644;48.858;9.184;2023-01-26T00:38:10;1.10;99.90
9219;DHT22;4644;48.858;9.184;2023-01-26T00:40:37;1.10;99.90
9219;DHT22;4644;48.858;9.184;2023-01-26T00:43:06;1.00;99.90
9219;DHT22;4644;48.858;9.184;2023-01-26T00:45:34;1.00;99.90
9219;DHT22;4644;48.858;9.184;2023-01-26T00:48:01;1.00;99.90
9219;DHT22;4644;48.858;9.184;2023-01-26T00:50:28;1.00;99.90
9219;DHT22;4644;48.858;9.184;2023-01-26T00:52:55;1.00;99.90
9219;DHT22;4644;48.858;9.184;2023-01-26T00:55:22;0.90;99.90
9219;DHT22;4644;48.858;9.184;2023-01-26T00:57:56;0.90;99.90
9219;DHT22;4644;48.858;9.184;2023-01-26T01:00:28;0.80;99.90
9219;DHT22;4644;48.858;9.184;2023-01-26T01:02:56;0.70;99.90
9219;DHT22;4644;48.858;9.184;2023-01-26T01:05:23;0.60;99.90
9219;DHT22;4644;48.858;9.184;2023-01-26T01:07:51;0.70;99.90
9219;DHT22;4644;48.858;9.184;2023-01-26T01:10:18;0.70;99.90
9219;DHT22;4644;48.858;9.184;2023-01-26T01:12:45;0.70;99.90
9219;DHT22;4644;48.858;9.184;2023-01-26T01:15:12;0.70;99.90
9219;DHT22;4644;48.858;9.184;2023-01-26T01:17:41;0.80;99.90
9219;DHT22;4644;48.858;9.184;2023-01-26T01:20:09;0.80;99.90
9219;DHT22;4644;48.858;9.184;2023-01-26T01:22:36;0.80;99.90
9219;DHT22;4644;48.858;9.184;2023-01-26T01:25:04;0.80;99.90
9219;DHT22;4644;48.858;9.184;2023-01-26T01:27:31;0.80;99.90
9219;DHT22;4644;48.858;9.184;2023-01-26T01:29:58;0.80;99.90
9219;DHT22;4644;48.858;9.184;2023-01-26T01:32:24;0.80;99.90
9219;DHT22;4644;48.858;9.184;2023-01-26T01:34:53;0.80;99.90
9219;DHT22;4644;48.858;9.184;2023-01-26T01:37:20;0.70;99.90
9219;DHT22;4644;48.858;9.184;2023-01-26T01:39:48;0.70;99.90
9219;DHT22;4644;48.858;9.184;2023-01-26T01:42:15;0.80;99.90
9219;DHT22;4644;48.858;9.184;2023-01-26T01:44:42;0.80;99.90
9219;DHT22;4644;48.858;9.184;2023-01-26T01:47:12;0.70;99.90
9219;DHT22;4644;48.858;9.184;2023-01-26T01:49:46;0.70;99.90
9219;DHT22;4644;48.858;9.184;2023-01-26T01:52:16;0.70;99.90
9219;DHT22;4644;48.858;9.184;2023-01-26T01:54:47;0.70;99.90
9219;DHT22;4644;48.858;9.184;2023-01-26T01:57:21;0.60;99.90
9219;DHT22;4644;48.858;9.184;2023-01-26T01:59:55;0.70;99.90
9219;DHT22;4644;48.858;9.184;2023-01-26T02:02:24;0.50;99.90
9219;DHT22;4644;48.858;9.184;2023-01-26T02:04:52;0.60;99.90
9219;DHT22;4644;48.858;9.184;2023-01-26T02:07:21;0.60;99.90
9219;DHT22;4644;48.858;9.184;2023-01-26T02:09:49;0.60;99.90
9219;DHT22;4644;48.858;9.184;2023-01-26T02:12:33;0.70;99.90
9219;DHT22;4644;48.858;9.184;2023-01-26T02:15:01;0.70;99.90
9219;DHT22;4644;48.858;9.184;2023-01-26T02:17:29;0.70;99.90
9219;DHT22;4644;48.858;9.184;2023-01-26T02:20:03;0.70;99.90
9219;DHT22;4644;48.858;9.184;2023-01-26T02:22:37;0.70;99.90
9219;DHT22;4644;48.858;9.184;2023-01-26T02:25:16;0.70;99.90
9219;DHT22;4644;48.858;9.184;2023-01-26T02:27:46;0.70;99.90
9219;DHT22;4644;48.858;9.184;2023-01-26T02:30:14;0.70;99.90
9219;DHT22;4644;48.858;9.184;2023-01-26T02:32:41;0.70;99.90
9219;DHT22;4644;48.858;9.184;2023-01-26T02:35:09;0.70;99.90
9219;DHT22;4644;48.858;9.184;2023-01-26T02:37:36;0.80;99.90
9219;DHT22;4644;48.858;9.184;2023-01-26T02:40:07;0.70;99.90
9219;DHT22;4644;48.858;9.184;2023-01-26T02:42:39;0.70;99.90
9219;DHT22;4644;48.858;9.184;2023-01-26T02:45:10;0.70;99.90
9219;DHT22;4644;48.858;9.184;2023-01-26T02:47:38;0.70;99.90
9219;DHT22;4644;48.858;9.184;2023-01-26T02:50:06;0.60;99.90
9219;DHT22;4644;48.858;9.184;2023-01-26T02:52:32;0.60;99.90
9219;DHT22;4644;48.858;9.184;2023-01-26T02:54:59;0.60;99.90
9219;DHT22;4644;48.858;9.184;2023-01-26T02:57:44;0.60;99.90
9219;DHT22;4644;48.858;9.184;2023-01-26T03:00:14;0.60;99.90
9219;DHT22;4644;48.858;9.184;2023-01-26T03:02:41;0.60;99.90
9219;DHT22;4644;48.858;9.184;2023-01-26T03:05:09;0.60;99.90
9219;DHT22;4644;48.858;9.184;2023-01-26T03:07:36;0.50;99.90
9219;DHT22;4644;48.858;9.184;2023-01-26T03:10:04;0.50;99.90
9219;DHT22;4644;48.858;9.184;2023-01-26T03:12:31;0.50;99.90
9219;DHT22;4644;48.858;9.184;2023-01-26T03:14:58;0.50;99.90
9219;DHT22;4644;48.858;9.184;2023-01-26T03:17:44;0.50;99.90
9219;DHT22;4644;48.858;9.184;2023-01-26T03:20:11;0.50;99.90
9219;DHT22;4644;48.858;9.184;2023-01-26T03:22:56;0.50;99.90
9219;DHT22;4644;48.858;9.184;2023-01-26T03:25:40;0.50;99.90
9219;DHT22;4644;48.858;9.184;2023-01-26T03:28:25;0.50;99.90
9219;DHT22;4644;48.858;9.184;2023-01-26T03:30:54;0.50;99.90
9219;DHT22;4644;48.858;9.184;2023-01-26T03:33:23;0.50;99.90
9219;DHT22;4644;48.858;9.184;2023-01-26T03:35:52;0.60;99.90
9219;DHT22;4644;48.858;9.184;2023-01-26T03:38:19;0.60;99.90
9219;DHT22;4644;48.858;9.184;2023-01-26T03:40:46;0.50;99.90
9219;DHT22;4644;48.858;9.184;2023-01-26T03:43:31;0.50;99.90
9219;DHT22;4644;48.858;9.184;2023-01-26T03:46:15;0.50;99.90
9219;DHT22;4644;48.858;9.184;2023-01-26T03:49:00;0.50;99.90
9219;DHT22;4644;48.858;9.184;2023-01-26T03:51:45;0.50;99.90
9219;DHT22;4644;48.858;9.184;2023-01-26T03:54:29;0.50;99.90
9219;DHT22;4644;48.858;9.184;2023-01-26T03:57:13;0.60;99.90
9219;DHT22;4644;48.858;9.184;2023-01-26T03:59:40;0.50;99.90
9219;DHT22;4644;48.858;9.184;2023-01-26T04:02:08;0.50;99.90
9219;DHT22;4644;48.858;9.184;2023-01-26T04:04:54;0.50;99.90
9219;DHT22;4644;48.858;9.184;2023-01-26T04:07:39;0.50;99.90
9219;DHT22;4644;48.858;9.184;2023-01-26T04:10:24;0.50;99.90
9219;DHT22;4644;48.858;9.184;2023-01-26T04:12:51;0.50;99.90
9219;DHT22;4644;48.858;9.184;2023-01-26T04:15:35;0.40;99.90
9219;DHT22;4644;48.858;9.184;2023-01-26T04:18:20;0.40;99.90
9219;DHT22;4644;48.858;9.184;2023-01-26T04:21:06;0.40;99.90
9219;DHT22;4644;48.858;9.184;2023-01-26T04:23:52;0.40;99.90
9219;DHT22;4644;48.858;9.184;2023-01-26T04:26:21;0.30;99.90
9219;DHT22;4644;48.858;9.184;2023-01-26T04:28:48;0.40;99.90
9219;DHT22;4644;48.858;9.184;2023-01-26T04:31:15;0.40;99.90
9219;DHT22;4644;48.858;9.184;2023-01-26T04:33:42;0.30;99.90
9219;DHT22;4644;48.858;9.184;2023-01-26T04:36:11;0.30;99.90
9219;DHT22;4644;48.858;9.184;2023-01-26T04:38:37;0.40;99.90
9219;DHT22;4644;48.858;9.184;2023-01-26T04:41:04;0.30;99.90
9219;DHT22;4644;48.858;9.184;2023-01-26T04:43:31;0.30;99.90
9219;DHT22;4644;48.858;9.184;2023-01-26T04:45:59;0.30;99.90
9219;DHT22;4644;48.858;9.184;2023-01-26T04:48:26;0.30;99.90
9219;DHT22;4644;48.858;9.184;2023-01-26T04:50:53;0.30;99.90
9219;DHT22;4644;48.858;9.184;2023-01-26T04:53:22;0.30;99.90
9219;DHT22;4644;48.858;9.184;2023-01-26T04:55:49;0.20;99.90
9219;DHT22;4644;48.858;9.184;2023-01-26T04:58:17;0.30;99.90
9219;DHT22;4644;48.858;9.184;2023-01-26T05:00:44;0.20;99.90
9219;DHT22;4644;48.858;9.184;2023-01-26T05:03:15;0.30;99.90
9219;DHT22;4644;48.858;9.184;2023-01-26T05:05:42;0.30;99.90
9219;DHT22;4644;48.858;9.184;2023-01-26T05:08:10;0.30;99.90
9219;DHT22;4644;48.858;9.184;2023-01-26T05:10:38;0.30;99.90
9219;DHT22;4644;48.858;9.184;2023-01-26T05:13:05;0.30;99.90
9219;DHT22;4644;48.858;9.184;2023-01-26T05:15:32;0.20;99.90
9219;DHT22;4644;48.858;9.184;2023-01-26T05:17:59;0.20;99.90
9219;DHT22;4644;48.858;9.184;2023-01-26T05:20:26;0.20;99.90
9219;DHT22;4644;48.858;9.184;2023-01-26T05:22:53;0.20;99.90
9219;DHT22;4644;48.858;9.184;2023-01-26T05:25:20;0.20;99.90
9219;DHT22;4644;48.858;9.184;2023-01-26T05:27:49;0.10;99.90
9219;DHT22;4644;48.858;9.184;2023-01-26T05:30:18;0.20;99.90
9219;DHT22;4644;48.858;9.184;2023-01-26T05:32:45;0.10;99.90
9219;DHT22;4644;48.858;9.184;2023-01-26T05:35:12;0.10;99.90
9219;DHT22;4644;48.858;9.184;2023-01-26T05:37:39;0.10;99.90
9219;DHT22;4644;48.858;9.184;2023-01-26T05:40:08;0.10;99.90
9219;DHT22;4644;48.858;9.184;2023-01-26T05:42:35;0.10;99.90
9219;DHT22;4644;48.858;9.184;2023-01-26T05:45:05;0.10;99.90
9219;DHT22;4644;48.858;9.184;2023-01-26T05:47:32;0.10;99.90
9219;DHT22;4644;48.858;9.184;2023-01-26T05:49:58;0.00;99.90
9219;DHT22;4644;48.858;9.184;2023-01-26T05:52:25;0.10;99.90
9219;DHT22;4644;48.858;9.184;2023-01-26T05:54:52;0.10;99.90
9219;DHT22;4644;48.858;9.184;2023-01-26T05:57:19;0.00;99.90
9219;DHT22;4644;48.858;9.184;2023-01-26T05:59:46;0.00;99.90
9219;DHT22;4644;48.858;9.184;2023-01-26T06:02:14;0.10;99.90
9219;DHT22;4644;48.858;9.184;2023-01-26T06:04:41;0.00;99.90
9219;DHT22;4644;48.858;9.184;2023-01-26T06:07:09;0.00;99.90
9219;DHT22;4644;48.858;9.184;2023-01-26T06:09:38;-0.10;99.90
9219;DHT22;4644;48.858;9.184;2023-01-26T06:12:05;0.00;99.90
9219;DHT22;4644;48.858;9.184;2023-01-26T06:14:32;-0.10;99.90
9219;DHT22;4644;48.858;9.184;2023-01-26T06:16:59;0.00;99.90
9219;DHT22;4644;48.858;9.184;2023-01-26T06:19:27;-0.10;99.90
9219;DHT22;4644;48.858;9.184;2023-01-26T06:21:55;-0.10;99.90
9219;DHT22;4644;48.858;9.184;2023-01-26T06:24:22;-0.10;99.90
9219;DHT22;4644;48.858;9.184;2023-01-26T06:26:49;-0.10;99.90
9219;DHT22;4644;48.858;9.184;2023-01-26T06:29:16;-0.10;99.90
9219;DHT22;4644;48.858;9.184;2023-01-26T06:31:43;-0.10;99.90
9219;DHT22;4644;48.858;9.184;2023-01-26T06:34:10;-0.10;99.90
9219;DHT22;4644;48.858;9.184;2023-01-26T06:36:38;-0.10;99.90
9219;DHT22;4644;48.858;9.184;2023-01-26T06:39:06;-0.10;99.90
9219;DHT22;4644;48.858;9.184;2023-01-26T06:41:33;-0.10;99.90
9219;DHT22;4644;48.858;9.184;2023-01-26T06:44:00;-0.10;99.90
9219;DHT22;4644;48.858;9.184;2023-01-26T06:46:27;-0.10;99.90
9219;DHT22;4644;48.858;9.184;2023-01-26T06:48:54;0.00;99.90
9219;DHT22;4644;48.858;9.184;2023-01-26T06:51:54;0.00;99.90
9219;DHT22;4644;48.858;9.184;2023-01-26T06:54:22;-0.10;99.90
9219;DHT22;4644;48.858;9.184;2023-01-26T06:56:49;0.00;99.90
9219;DHT22;4644;48.858;9.184;2023-01-26T06:59:16;-0.10;99.90
9219;DHT22;4644;48.858;9.184;2023-01-26T07:01:44;-0.10;99.90
9219;DHT22;4644;48.858;9.184;2023-01-26T07:04:14;-0.10;99.90
9219;DHT22;4644;48.858;9.184;2023-01-26T07:06:42;-0.10;99.90
9219;DHT22;4644;48.858;9.184;2023-01-26T07:09:11;-0.10;99.90
9219;DHT22;4644;48.858;9.184;2023-01-26T07:11:38;-0.10;99.90
9219;DHT22;4644;48.858;9.184;2023-01-26T07:14:05;-0.10;99.90
9219;DHT22;4644;48.858;9.184;2023-01-26T07:16:32;-0.10;99.90
9219;DHT22;4644;48.858;9.184;2023-01-26T07:18:59;-0.10;99.90
9219;DHT22;4644;48.858;9.184;2023-01-26T07:21:26;-0.10;99.90
9219;DHT22;4644;48.858;9.184;2023-01-26T07:23:54;-0.10;99.90
9219;DHT22;4644;48.858;9.184;2023-01-26T07:26:23;-0.10;99.90
9219;DHT22;4644;48.858;9.184;2023-01-26T07:28:50;0.00;99.90
9219;DHT22;4644;48.858;9.184;2023-01-26T07:31:17;-0.10;99.90
9219;DHT22;4644;48.858;9.184;2023-01-26T07:33:44;-0.10;99.90
9219;DHT22;4644;48.858;9.184;2023-01-26T07:36:11;-0.10;99.90
9219;DHT22;4644;48.858;9.184;2023-01-26T07:38:38;-0.10;99.90
9219;DHT22;4644;48.858;9.184;2023-01-26T07:41:10;-0.20;99.90
9219;DHT22;4644;48.858;9.184;2023-01-26T07:43:39;-0.20;99.90
9219;DHT22;4644;48.858;9.184;2023-01-26T07:46:07;-0.20;99.90
9219;DHT22;4644;48.858;9.184;2023-01-26T07:48:35;-0.30;99.90
9219;DHT22;4644;48.858;9.184;2023-01-26T07:51:03;-0.30;99.90
9219;DHT22;4644;48.858;9.184;2023-01-26T07:53:33;-0.20;99.90
9219;DHT22;4644;48.858;9.184;2023-01-26T07:56:08;-0.20;99.90
9219;DHT22;4644;48.858;9.184;2023-01-26T07:58:36;-0.20;99.90
9219;DHT22;4644;48.858;9.184;2023-01-26T08:01:09;-0.10;99.90
9219;DHT22;4644;48.858;9.184;2023-01-26T08:03:36;-0.10;99.90
9219;DHT22;4644;48.858;9.184;2023-01-26T08:06:04;-0.10;99.90
9219;DHT22;4644;48.858;9.184;2023-01-26T08:08:32;-0.10;99.90
9219;DHT22;4644;48.858;9.184;2023-01-26T08:10:59;-0.10;99.90
9219;DHT22;4644;48.858;9.184;2023-01-26T08:13:27;-0.10;99.90
9219;DHT22;4644;48.858;9.184;2023-01-26T08:15:57;-0.10;99.90
9219;DHT22;4644;48.858;9.184;2023-01-26T08:18:27;0.00;99.90
9219;DHT22;4644;48.858;9.184;2023-01-26T08:20:54;0.00;99.90
9219;DHT22;4644;48.858;9.184;2023-01-26T08:23:21;0.00;99.90
9219;DHT22;4644;48.858;9.184;2023-01-26T08:25:48;0.00;99.90
9219;DHT22;4644;48.858;9.184;2023-01-26T08:28:15;0.10;99.90
9219;DHT22;4644;48.858;9.184;2023-01-26T08:30:42;0.10;99.90
9219;DHT22;4644;48.858;9.184;2023-01-26T08:33:09;0.10;99.90
9219;DHT22;4644;48.858;9.184;2023-01-26T08:35:37;0.10;99.90
9219;DHT22;4644;48.858;9.184;2023-01-26T08:38:04;0.10;99.90
9219;DHT22;4644;48.858;9.184;2023-01-26T08:40:31;0.10;99.90
9219;DHT22;4644;48.858;9.184;2023-01-26T08:42:59;0.20;99.90
9219;DHT22;4644;48.858;9.184;2023-01-26T08:45:27;0.20;99.90
9219;DHT22;4644;48.858;9.184;2023-01-26T08:47:54;0.20;99.90
9219;DHT22;4644;48.858;9.184;2023-01-26T08:50:21;0.30;99.90
9219;DHT22;4644;48.858;9.184;2023-01-26T08:52:49;0.30;99.90
9219;DHT22;4644;48.858;9.184;2023-01-26T08:55:16;0.30;99.90
9219;DHT22;4644;48.858;9.184;2023-01-26T08:57:43;0.30;99.90
9219;DHT22;4644;48.858;9.184;2023-01-26T09:00:13;0.30;99.90
9219;DHT22;4644;48.858;9.184;2023-01-26T09:02:40;0.40;99.90
9219;DHT22;4644;48.858;9.184;2023-01-26T09:05:08;0.40;99.90
9219;DHT22;4644;48.858;9.184;2023-01-26T09:07:35;0.40;99.90
9219;DHT22;4644;48.858;9.184;2023-01-26T09:10:04;0.40;99.90
9219;DHT22;4644;48.858;9.184;2023-01-26T09:12:31;0.40;99.90
9219;DHT22;4644;48.858;9.184;2023-01-26T09:14:58;0.40;99.90
9219;DHT22;4644;48.858;9.184;2023-01-26T09:17:25;0.30;99.90
9219;DHT22;4644;48.858;9.184;2023-01-26T09:19:52;0.30;99.90
9219;DHT22;4644;48.858;9.184;2023-01-26T09:22:18;0.30;99.90
9219;DHT22;4644;48.858;9.184;2023-01-26T09:24:45;0.30;99.90
9219;DHT22;4644;48.858;9.184;2023-01-26T09:27:14;0.40;99.90
9219;DHT22;4644;48.858;9.184;2023-01-26T09:29:40;0.40;99.90
9219;DHT22;4644;48.858;9.184;2023-01-26T09:32:07;0.40;99.90
9219;DHT22;4644;48.858;9.184;2023-01-26T09:34:34;0.30;99.90
9219;DHT22;4644;48.858;9.184;2023-01-26T09:37:01;0.40;99.90
9219;DHT22;4644;48.858;9.184;2023-01-26T09:39:28;0.40;99.90
9219;DHT22;4644;48.858;9.184;2023-01-26T09:42:03;0.40;99.90
9219;DHT22;4644;48.858;9.184;2023-01-26T09:44:39;0.30;99.90
9219;DHT22;4644;48.858;9.184;2023-01-26T09:47:16;0.30;99.90
9219;DHT22;4644;48.858;9.184;2023-01-26T09:49:48;0.30;99.90
9219;DHT22;4644;48.858;9.184;2023-01-26T09:52:23;0.30;99.90
9219;DHT22;4644;48.858;9.184;2023-01-26T09:54:53;0.40;99.90
9219;DHT22;4644;48.858;9.184;2023-01-26T09:57:26;0.40;99.90
9219;DHT22;4644;48.858;9.184;2023-01-26T09:59:58;0.40;99.90
9219;DHT22;4644;48.858;9.184;2023-01-26T10:02:40;0.40;99.90
9219;DHT22;4644;48.858;9.184;2023-01-26T10:05:13;0.40;99.90
9219;DHT22;4644;48.858;9.184;2023-01-26T10:07:44;0.40;99.90
9219;DHT22;4644;48.858;9.184;2023-01-26T10:10:17;0.40;99.90
9219;DHT22;4644;48.858;9.184;2023-01-26T10:12:47;0.40;99.90
9219;DHT22;4644;48.858;9.184;2023-01-26T10:15:27;0.50;99.90
9219;DHT22;4644;48.858;9.184;2023-01-26T10:17:55;0.40;99.90
9219;DHT22;4644;48.858;9.184;2023-01-26T10:20:27;0.40;99.90
9219;DHT22;4644;48.858;9.184;2023-01-26T10:22:59;0.40;99.90
9219;DHT22;4644;48.858;9.184;2023-01-26T10:25:35;0.40;99.90
9219;DHT22;4644;48.858;9.184;2023-01-26T10:28:11;0.40;99.90
9219;DHT22;4644;48.858;9.184;2023-01-26T10:30:43;0.40;99.90
9219;DHT22;4644;48.858;9.184;2023-01-26T10:33:14;0.40;99.90
9219;DHT22;4644;48.858;9.184;2023-01-26T10:35:42;0.40;99.90
9219;DHT22;4644;48.858;9.184;2023-01-26T10:38:38;0.40;99.90
9219;DHT22;4644;48.858;9.184;2023-01-26T10:41:06;0.50;99.90
9219;DHT22;4644;48.858;9.184;2023-01-26T10:43:36;0.40;99.90
9219;DHT22;4644;48.858;9.184;2023-01-26T10:46:05;0.50;99.90
9219;DHT22;4644;48.858;9.184;2023-01-26T10:48:32;0.40;99.90
9219;DHT22;4644;48.858;9.184;2023-01-26T10:51:15;0.50;99.90
9219;DHT22;4644;48.858;9.184;2023-01-26T10:53:42;0.50;99.90
9219;DHT22;4644;48.858;9.184;2023-01-26T10:56:12;0.50;99.90
9219;DHT22;4644;48.858;9.184;2023-01-26T10:58:46;0.50;99.90
9219;DHT22;4644;48.858;9.184;2023-01-26T11:01:17;0.40;99.90
9219;DHT22;4644;48.858;9.184;2023-01-26T11:04:03;0.50;99.90
9219;DHT22;4644;48.858;9.184;2023-01-26T11:06:30;0.50;99.90
9219;DHT22;4644;48.858;9.184;2023-01-26T11:09:08;0.50;99.90
9219;DHT22;4644;48.858;9.184;2023-01-26T11:11:36;0.50;99.90
9219;DHT22;4644;48.858;9.184;2023-01-26T11:14:15;0.40;99.90
9219;DHT22;4644;48.858;9.184;2023-01-26T11:16:46;0.50;99.90
9219;DHT22;4644;48.858;9.184;2023-01-26T11:19:29;0.50;99.90
9219;DHT22;4644;48.858;9.184;2023-01-26T11:21:58;0.50;99.90
9219;DHT22;4644;48.858;9.184;2023-01-26T11:24:33;0.40;99.90
9219;DHT22;4644;48.858;9.184;2023-01-26T11:27:22;0.50;99.90
9219;DHT22;4644;48.858;9.184;2023-01-26T11:30:19;0.50;99.90
9219;DHT22;4644;48.858;9.184;2023-01-26T11:32:55;0.40;99.90
9219;DHT22;4644;48.858;9.184;2023-01-26T11:35:30;0.50;99.90
9219;DHT22;4644;48.858;9.184;2023-01-26T11:38:08;0.40;99.90
9219;DHT22;4644;48.858;9.184;2023-01-26T11:40:42;0.50;99.90
9219;DHT22;4644;48.858;9.184;2023-01-26T11:46:48;0.50;99.90
9219;DHT22;4644;48.858;9.184;2023-01-26T11:49:28;0.50;99.90
9219;DHT22;4644;48.858;9.184;2023-01-26T11:52:08;0.50;99.90
9219;DHT22;4644;48.858;9.184;2023-01-26T11:55:17;0.50;99.90
9219;DHT22;4644;48.858;9.184;2023-01-26T11:57:52;0.50;99.90
9219;DHT22;4644;48.858;9.184;2023-01-26T12:00:27;0.50;99.90
9219;DHT22;4644;48.858;9.184;2023-01-26T12:03:00;0.50;99.90
9219;DHT22;4644;48.858;9.184;2023-01-26T12:05:34;0.50;99.90
9219;DHT22;4644;48.858;9.184;2023-01-26T12:08:11;0.50;99.90
9219;DHT22;4644;48.858;9.184;2023-01-26T12:10:44;0.50;99.90
9219;DHT22;4644;48.858;9.184;2023-01-26T12:13:18;0.50;99.90
9219;DHT22;4644;48.858;9.184;2023-01-26T12:15:54;0.60;99.90
9219;DHT22;4644;48.858;9.184;2023-01-26T12:18:25;0.50;99.90
9219;DHT22;4644;48.858;9.184;2023-01-26T12:21:01;0.40;99.90
9219;DHT22;4644;48.858;9.184;2023-01-26T12:23:37;0.50;99.90
9219;DHT22;4644;48.858;9.184;2023-01-26T12:26:12;0.40;99.90
9219;DHT22;4644;48.858;9.184;2023-01-26T12:28:45;0.40;99.90
9219;DHT22;4644;48.858;9.184;2023-01-26T12:31:19;0.30;99.90
9219;DHT22;4644;48.858;9.184;2023-01-26T12:33:50;0.30;99.90
9219;DHT22;4644;48.858;9.184;2023-01-26T12:36:35;0.30;99.90
9219;DHT22;4644;48.858;9.184;2023-01-26T12:39:10;0.30;99.90
9219;DHT22;4644;48.858;9.184;2023-01-26T12:44:37;0.20;99.90
9219;DHT22;4644;48.858;9.184;2023-01-26T12:47:09;0.20;99.90
9219;DHT22;4644;48.858;9.184;2023-01-26T12:49:42;0.30;99.90
9219;DHT22;4644;48.858;9.184;2023-01-26T12:52:16;0.30;99.90
9219;DHT22;4644;48.858;9.184;2023-01-26T12:54:49;0.40;99.90
9219;DHT22;4644;48.858;9.184;2023-01-26T12:57:22;0.40;99.90
9219;DHT22;4644;48.858;9.184;2023-01-26T12:59:50;0.40;99.90
9219;DHT22;4644;48.858;9.184;2023-01-26T13:02:28;0.40;99.90
9219;DHT22;4644;48.858;9.184;2023-01-26T13:04:57;0.40;99.90
9219;DHT22;4644;48.858;9.184;2023-01-26T13:07:29;0.50;99.90
9219;DHT22;4644;48.858;9.184;2023-01-26T13:10:24;0.50;99.90
9219;DHT22;4644;48.858;9.184;2023-01-26T13:12:54;0.50;99.90
9219;DHT22;4644;48.858;9.184;2023-01-26T13:15:22;0.50;99.90
9219;DHT22;4644;48.858;9.184;2023-01-26T13:17:52;0.40;99.90
9219;DHT22;4644;48.858;9.184;2023-01-26T13:20:49;0.40;99.90
9219;DHT22;4644;48.858;9.184;2023-01-26T13:23:50;0.40;99.90
9219;DHT22;4644;48.858;9.184;2023-01-26T13:26:24;0.30;99.90
9219;DHT22;4644;48.858;9.184;2023-01-26T13:28:51;0.30;99.90
9219;DHT22;4644;48.858;9.184;2023-01-26T13:31:38;0.30;99.90
9219;DHT22;4644;48.858;9.184;2023-01-26T13:34:06;0.20;99.90
9219;DHT22;4644;48.858;9.184;2023-01-26T13:36:36;0.30;99.90
9219;DHT22;4644;48.858;9.184;2023-01-26T13:39:23;0.20;99.90
9219;DHT22;4644;48.858;9.184;2023-01-26T13:41:53;0.20;99.90
9219;DHT22;4644;48.858;9.184;2023-01-26T13:44:24;0.20;99.90
9219;DHT22;4644;48.858;9.184;2023-01-26T13:46:55;0.30;99.90
9219;DHT22;4644;48.858;9.184;2023-01-26T13:49:24;0.30;99.90
9219;DHT22;4644;48.858;9.184;2023-01-26T13:51:51;0.20;99.90
9219;DHT22;4644;48.858;9.184;2023-01-26T13:54:20;0.20;99.90
9219;DHT22;4644;48.858;9.184;2023-01-26T13:57:02;0.30;99.90
9219;DHT22;4644;48.858;9.184;2023-01-26T13:59:29;0.30;99.90
9219;DHT22;4644;48.858;9.184;2023-01-26T14:01:58;0.40;99.90
9219;DHT22;4644;48.858;9.184;2023-01-26T14:04:27;0.40;99.90
9219;DHT22;4644;48.858;9.184;2023-01-26T14:06:56;0.40;99.90
9219;DHT22;4644;48.858;9.184;2023-01-26T14:09:27;0.40;99.90
9219;DHT22;4644;48.858;9.184;2023-01-26T14:11:58;0.40;99.90
9219;DHT22;4644;48.858;9.184;2023-01-26T14:14:27;0.40;99.90
9219;DHT22;4644;48.858;9.184;2023-01-26T14:16:56;0.50;99.90
9219;DHT22;4644;48.858;9.184;2023-01-26T14:19:24;0.30;99.90
9219;DHT22;4644;48.858;9.184;2023-01-26T14:21:53;0.30;99.90
9219;DHT22;4644;48.858;9.184;2023-01-26T14:24:31;0.30;99.90
9219;DHT22;4644;48.858;9.184;2023-01-26T14:26:59;0.30;99.90
9219;DHT22;4644;48.858;9.184;2023-01-26T14:29:28;0.40;99.90
9219;DHT22;4644;48.858;9.184;2023-01-26T14:31:57;0.30;99.90
9219;DHT22;4644;48.858;9.184;2023-01-26T14:34:26;0.30;99.90
9219;DHT22;4644;48.858;9.184;2023-01-26T14:37:09;0.40;99.90
9219;DHT22;4644;48.858;9.184;2023-01-26T14:39:39;0.30;99.90
9219;DHT22;4644;48.858;9.184;2023-01-26T14:42:09;0.30;99.90
9219;DHT22;4644;48.858;9.184;2023-01-26T14:44:42;0.30;99.90
9219;DHT22;4644;48.858;9.184;2023-01-26T14:47:14;0.30;99.90
9219;DHT22;4644;48.858;9.184;2023-01-26T14:49:47;0.30;99.90
9219;DHT22;4644;48.858;9.184;2023-01-26T14:52:20;0.30;99.90
9219;DHT22;4644;48.858;9.184;2023-01-26T14:54:50;0.30;99.90
9219;DHT22;4644;48.858;9.184;2023-01-26T14:57:20;0.30;99.90
9219;DHT22;4644;48.858;9.184;2023-01-26T14:59:50;0.30;99.90
9219;DHT22;4644;48.858;9.184;2023-01-26T15:02:19;0.30;99.90
9219;DHT22;4644;48.858;9.184;2023-01-26T15:04:51;0.30;99.90
9219;DHT22;4644;48.858;9.184;2023-01-26T15:07:34;0.30;99.90
9219;DHT22;4644;48.858;9.184;2023-01-26T15:10:25;0.30;99.90
9219;DHT22;4644;48.858;9.184;2023-01-26T15:12:57;0.40;99.90
9219;DHT22;4644;48.858;9.184;2023-01-26T15:15:26;0.40;99.90
9219;DHT22;4644;48.858;9.184;2023-01-26T15:18:02;0.30;99.90
9219;DHT22;4644;48.858;9.184;2023-01-26T15:20:41;0.30;99.90
9219;DHT22;4644;48.858;9.184;2023-01-26T15:23:21;0.30;99.90
9219;DHT22;4644;48.858;9.184;2023-01-26T15:25:50;0.40;99.90
9219;DHT22;4644;48.858;9.184;2023-01-26T15:28:19;0.30;99.90
9219;DHT22;4644;48.858;9.184;2023-01-26T15:30:49;0.30;99.90
9219;DHT22;4644;48.858;9.184;2023-01-26T15:33:45;0.30;99.90
9219;DHT22;4644;48.858;9.184;2023-01-26T15:36:32;0.30;99.90
9219;DHT22;4644;48.858;9.184;2023-01-26T15:39:03;0.30;99.90
9219;DHT22;4644;48.858;9.184;2023-01-26T15:41:36;0.30;99.90
9219;DHT22;4644;48.858;9.184;2023-01-26T15:44:04;0.30;99.90
9219;DHT22;4644;48.858;9.184;2023-01-26T15:46:31;0.40;99.90
9219;DHT22;4644;48.858;9.184;2023-01-26T15:48:58;0.30;99.90
9219;DHT22;4644;48.858;9.184;2023-01-26T15:51:24;0.30;99.90
9219;DHT22;4644;48.858;9.184;2023-01-26T15:53:51;0.30;99.90
9219;DHT22;4644;48.858;9.184;2023-01-26T15:56:18;0.30;99.90
9219;DHT22;4644;48.858;9.184;2023-01-26T15:58:47;0.30;99.90
9219;DHT22;4644;48.858;9.184;2023-01-26T16:01:15;0.30;99.90
9219;DHT22;4644;48.858;9.184;2023-01-26T16:03:44;0.30;99.90
9219;DHT22;4644;48.858;9.184;2023-01-26T16:06:25;0.30;99.90
9219;DHT22;4644;48.858;9.184;2023-01-26T16:08:53;0.20;99.90
9219;DHT22;4644;48.858;9.184;2023-01-26T16:11:27;0.20;99.90
9219;DHT22;4644;48.858;9.184;2023-01-26T16:13:56;0.20;99.90
9219;DHT22;4644;48.858;9.184;2023-01-26T16:16:24;0.30;99.90
9219;DHT22;4644;48.858;9.184;2023-01-26T16:18:52;0.30;99.90
9219;DHT22;4644;48.858;9.184;2023-01-26T16:21:21;0.30;99.90
9219;DHT22;4644;48.858;9.184;2023-01-26T16:23:48;0.30;99.90
9219;DHT22;4644;48.858;9.184;2023-01-26T16:26:17;0.30;99.90
9219;DHT22;4644;48.858;9.184;2023-01-26T16:28:45;0.30;99.90
9219;DHT22;4644;48.858;9.184;2023-01-26T16:31:15;0.40;99.90
9219;DHT22;4644;48.858;9.184;2023-01-26T16:33:43;0.40;99.90
9219;DHT22;4644;48.858;9.184;2023-01-26T16:36:13;0.40;99.90
9219;DHT22;4644;48.858;9.184;2023-01-26T16:38:41;0.30;99.90
9219;DHT22;4644;48.858;9.184;2023-01-26T16:41:13;0.30;99.90
9219;DHT22;4644;48.858;9.184;2023-01-26T16:43:41;0.30;99.90
9219;DHT22;4644;48.858;9.184;2023-01-26T16:46:09;0.30;99.90
9219;DHT22;4644;48.858;9.184;2023-01-26T16:48:39;0.30;99.90